sensor_id;sensor_type;location;lat;lon;timestamp;pressure;altitude;pressure_sealevel;temperature;humidity
27805;BME280;15183;51.350;11.102;2023-12-20T00:01:39;99693.59;;;8.54;75.74
27805;BME280;15183;51.350;11.102;2023-12-20T00:04:06;99693.38;;;8.56;75.69
27805;BME280;15183;51.350;11.102;2023-12-20T00:06:33;99695.59;;;8.59;75.64
27805;BME280;15183;51.350;11.102;2023-12-20T00:08:59;99690.44;;;8.64;75.83
27805;BME280;15183;51.350;11.102;2023-12-20T00:11:26;99700.38;;;8.68;75.37
27805;BME280;15183;51.350;11.102;2023-12-20T00:13:52;99670.03;;;8.52;75.44
27805;BME280;15183;51.350;11.102;2023-12-20T00:16:19;99620.06;;;8.25;75.65
27805;BME280;15183;51.350;11.102;2023-12-20T00:18:45;99683.66;;;8.75;75.72
27805;BME280;15183;51.350;11.102;2023-12-20T00:21:12;99651.44;;;8.66;75.44
27805;BME280;15183;51.350;11.102;2023-12-20T00:23:39;99668.78;;;8.80;75.61
27805;BME280;15183;51.350;11.102;2023-12-20T00:26:05;99670.59;;;8.80;75.57
27805;BME280;15183;51.350;11.102;2023-12-20T00:32:14;99653.22;;;8.72;75.51
27805;BME280;15183;51.350;11.102;2023-12-20T00:34:43;99671.13;;;8.89;75.06
27805;BME280;15183;51.350;11.102;2023-12-20T00:37:09;99656.59;;;8.79;75.29
27805;BME280;15183;51.350;11.102;2023-12-20T00:39:36;99668.94;;;8.86;75.10
27805;BME280;15183;51.350;11.102;2023-12-20T00:42:02;99674.75;;;8.94;75.20
27805;BME280;15183;51.350;11.102;2023-12-20T00:44:30;99659.84;;;8.81;75.08
27805;BME280;15183;51.350;11.102;2023-12-20T00:46:58;99676.38;;;8.95;74.98
27805;BME280;15183;51.350;11.102;2023-12-20T00:49:24;99678.78;;;8.97;75.08
27805;BME280;15183;51.350;11.102;2023-12-20T00:51:51;99686.84;;;9.02;75.11
27805;BME280;15183;51.350;11.102;2023-12-20T00:54:18;99647.06;;;8.78;74.84
27805;BME280;15183;51.350;11.102;2023-12-20T00:56:45;99682.84;;;9.00;74.93
27805;BME280;15183;51.350;11.102;2023-12-20T00:59:17;99641.78;;;8.78;74.98
27805;BME280;15183;51.350;11.102;2023-12-20T01:01:46;99646.19;;;8.85;74.58
27805;BME280;15183;51.350;11.102;2023-12-20T01:04:13;99624.16;;;8.72;74.64
27805;BME280;15183;51.350;11.102;2023-12-20T01:06:39;99663.94;;;8.96;75.19
27805;BME280;15183;51.350;11.102;2023-12-20T01:09:06;99640.66;;;8.86;75.41
27805;BME280;15183;51.350;11.102;2023-12-20T01:11:32;99648.69;;;8.98;75.00
27805;BME280;15183;51.350;11.102;2023-12-20T01:13:59;99650.09;;;9.01;74.83
27805;BME280;15183;51.350;11.102;2023-12-20T01:16:26;99649.84;;;9.02;75.10
27805;BME280;15183;51.350;11.102;2023-12-20T01:18:52;99638.13;;;8.98;74.78
27805;BME280;15183;51.350;11.102;2023-12-20T01:21:18;99653.53;;;9.01;74.66
27805;BME280;15183;51.350;11.102;2023-12-20T01:23:45;99665.28;;;9.05;74.83
27805;BME280;15183;51.350;11.102;2023-12-20T01:26:11;99666.31;;;9.04;74.93
27805;BME280;15183;51.350;11.102;2023-12-20T01:28:38;99624.31;;;8.77;74.74
27805;BME280;15183;51.350;11.102;2023-12-20T01:31:05;99638.22;;;8.91;75.63
27805;BME280;15183;51.350;11.102;2023-12-20T01:33:31;99650.69;;;9.03;75.03
27805;BME280;15183;51.350;11.102;2023-12-20T01:35:58;99594.34;;;8.65;75.12
27805;BME280;15183;51.350;11.102;2023-12-20T01:38:24;99639.53;;;9.01;75.36
27805;BME280;15183;51.350;11.102;2023-12-20T01:40:51;99626.03;;;8.90;75.00
27805;BME280;15183;51.350;11.102;2023-12-20T01:43:17;99617.28;;;8.90;75.25
27805;BME280;15183;51.350;11.102;2023-12-20T01:45:44;99640.47;;;9.06;75.12
27805;BME280;15183;51.350;11.102;2023-12-20T01:48:10;99600.25;;;8.86;75.18
27805;BME280;15183;51.350;11.102;2023-12-20T01:50:37;99623.56;;;9.07;75.39
27805;BME280;15183;51.350;11.102;2023-12-20T01:53:14;99607.66;;;8.95;75.10
27805;BME280;15183;51.350;11.102;2023-12-20T01:55:42;99616.53;;;9.01;75.26
27805;BME280;15183;51.350;11.102;2023-12-20T01:58:10;99613.63;;;9.09;75.34
27805;BME280;15183;51.350;11.102;2023-12-20T02:00:37;99625.25;;;9.20;75.24
27805;BME280;15183;51.350;11.102;2023-12-20T02:03:04;99620.41;;;9.17;74.96
27805;BME280;15183;51.350;11.102;2023-12-20T02:05:34;99623.78;;;9.24;74.88
27805;BME280;15183;51.350;11.102;2023-12-20T02:08:02;99617.72;;;9.24;75.11
27805;BME280;15183;51.350;11.102;2023-12-20T02:10:28;99616.88;;;9.23;74.76
27805;BME280;15183;51.350;11.102;2023-12-20T02:12:56;99598.03;;;9.20;75.06
27805;BME280;15183;51.350;11.102;2023-12-20T02:15:22;99604.56;;;9.17;74.52
27805;BME280;15183;51.350;11.102;2023-12-20T02:17:49;99616.75;;;9.37;74.79
27805;BME280;15183;51.350;11.102;2023-12-20T02:20:19;99612.03;;;9.39;74.94
27805;BME280;15183;51.350;11.102;2023-12-20T02:22:45;99610.78;;;9.41;74.75
27805;BME280;15183;51.350;11.102;2023-12-20T02:25:14;99609.53;;;9.44;74.93
27805;BME280;15183;51.350;11.102;2023-12-20T02:27:41;99606.22;;;9.49;75.09
27805;BME280;15183;51.350;11.102;2023-12-20T02:30:09;99582.94;;;9.39;74.61
27805;BME280;15183;51.350;11.102;2023-12-20T02:32:36;99582.50;;;9.42;74.64
27805;BME280;15183;51.350;11.102;2023-12-20T02:35:03;99572.59;;;9.37;74.89
27805;BME280;15183;51.350;11.102;2023-12-20T02:37:30;99569.72;;;9.39;74.88
27805;BME280;15183;51.350;11.102;2023-12-20T02:39:56;99577.44;;;9.40;74.63
27805;BME280;15183;51.350;11.102;2023-12-20T02:42:23;99584.63;;;9.52;74.55
27805;BME280;15183;51.350;11.102;2023-12-20T02:44:49;99516.41;;;9.11;74.50
27805;BME280;15183;51.350;11.102;2023-12-20T02:47:16;99582.41;;;9.49;74.56
27805;BME280;15183;51.350;11.102;2023-12-20T02:49:42;99599.13;;;9.61;74.77
27805;BME280;15183;51.350;11.102;2023-12-20T02:52:09;99578.19;;;9.60;74.89
27805;BME280;15183;51.350;11.102;2023-12-20T02:54:35;99503.28;;;9.05;74.62
27805;BME280;15183;51.350;11.102;2023-12-20T02:57:02;99602.72;;;9.67;74.62
27805;BME280;15183;51.350;11.102;2023-12-20T02:59:28;99593.97;;;9.66;74.74
27805;BME280;15183;51.350;11.102;2023-12-20T03:01:56;99586.50;;;9.63;74.54
27805;BME280;15183;51.350;11.102;2023-12-20T03:04:22;99590.16;;;9.62;74.75
27805;BME280;15183;51.350;11.102;2023-12-20T03:06:49;99483.38;;;9.02;74.49
27805;BME280;15183;51.350;11.102;2023-12-20T03:09:16;99571.16;;;9.53;74.38
27805;BME280;15183;51.350;11.102;2023-12-20T03:11:42;99571.06;;;9.60;74.57
27805;BME280;15183;51.350;11.102;2023-12-20T03:14:08;99570.38;;;9.65;74.64
27805;BME280;15183;51.350;11.102;2023-12-20T03:16:35;99601.00;;;9.73;74.20
27805;BME280;15183;51.350;11.102;2023-12-20T03:19:01;99579.78;;;9.61;74.15
27805;BME280;15183;51.350;11.102;2023-12-20T03:21:28;99584.16;;;9.55;74.56
27805;BME280;15183;51.350;11.102;2023-12-20T03:23:54;99567.13;;;9.51;74.50
27805;BME280;15183;51.350;11.102;2023-12-20T03:26:21;99521.59;;;9.18;74.40
27805;BME280;15183;51.350;11.102;2023-12-20T03:28:48;99501.88;;;9.02;74.58
27805;BME280;15183;51.350;11.102;2023-12-20T03:31:15;99600.75;;;9.62;74.87
27805;BME280;15183;51.350;11.102;2023-12-20T03:33:41;99615.34;;;9.65;74.74
27805;BME280;15183;51.350;11.102;2023-12-20T03:36:08;99618.44;;;9.62;74.70
27805;BME280;15183;51.350;11.102;2023-12-20T03:38:35;99627.06;;;9.57;74.95
27805;BME280;15183;51.350;11.102;2023-12-20T03:41:04;99604.19;;;9.32;74.43
27805;BME280;15183;51.350;11.102;2023-12-20T03:43:31;99632.44;;;9.50;75.09
27805;BME280;15183;51.350;11.102;2023-12-20T03:45:57;99601.25;;;9.22;74.79
27805;BME280;15183;51.350;11.102;2023-12-20T03:48:24;99600.59;;;9.26;75.11
27805;BME280;15183;51.350;11.102;2023-12-20T03:50:51;99598.75;;;9.27;75.51
27805;BME280;15183;51.350;11.102;2023-12-20T03:53:17;99607.91;;;9.43;75.51
27805;BME280;15183;51.350;11.102;2023-12-20T03:55:44;99593.84;;;9.31;75.18
27805;BME280;15183;51.350;11.102;2023-12-20T03:58:10;99597.66;;;9.35;75.61
27805;BME280;15183;51.350;11.102;2023-12-20T04:00:37;99619.66;;;9.47;75.63
27805;BME280;15183;51.350;11.102;2023-12-20T04:03:04;99580.25;;;9.27;75.42
27805;BME280;15183;51.350;11.102;2023-12-20T04:05:30;99573.16;;;9.09;75.66
27805;BME280;15183;51.350;11.102;2023-12-20T04:07:57;99620.03;;;9.51;75.42
27805;BME280;15183;51.350;11.102;2023-12-20T04:10:23;99593.84;;;9.31;75.41
27805;BME280;15183;51.350;11.102;2023-12-20T04:12:49;99595.81;;;9.35;75.46
27805;BME280;15183;51.350;11.102;2023-12-20T04:15:16;99626.94;;;9.52;75.31
27805;BME280;15183;51.350;11.102;2023-12-20T04:17:42;99621.84;;;9.50;75.54
27805;BME280;15183;51.350;11.102;2023-12-20T04:20:09;99531.25;;;8.94;75.12
27805;BME280;15183;51.350;11.102;2023-12-20T04:22:36;99624.41;;;9.57;75.61
27805;BME280;15183;51.350;11.102;2023-12-20T04:25:02;99602.25;;;9.39;75.76
27805;BME280;15183;51.350;11.102;2023-12-20T04:27:29;99630.75;;;9.56;75.62
27805;BME280;15183;51.350;11.102;2023-12-20T04:29:57;99644.09;;;9.61;75.42
27805;BME280;15183;51.350;11.102;2023-12-20T04:32:24;99607.34;;;9.41;75.65
27805;BME280;15183;51.350;11.102;2023-12-20T04:34:50;99609.44;;;9.51;75.70
27805;BME280;15183;51.350;11.102;2023-12-20T04:37:16;99604.81;;;9.46;75.21
27805;BME280;15183;51.350;11.102;2023-12-20T04:39:43;99631.91;;;9.60;75.49
27805;BME280;15183;51.350;11.102;2023-12-20T04:42:10;99635.13;;;9.62;75.21
27805;BME280;15183;51.350;11.102;2023-12-20T04:44:36;99604.00;;;9.46;75.06
27805;BME280;15183;51.350;11.102;2023-12-20T04:47:03;99646.28;;;9.64;75.10
27805;BME280;15183;51.350;11.102;2023-12-20T04:49:29;99626.03;;;9.58;75.05
27805;BME280;15183;51.350;11.102;2023-12-20T04:51:56;99605.13;;;9.38;74.53
27805;BME280;15183;51.350;11.102;2023-12-20T04:54:23;99649.06;;;9.69;74.69
27805;BME280;15183;51.350;11.102;2023-12-20T04:56:51;99638.94;;;9.66;75.01
27805;BME280;15183;51.350;11.102;2023-12-20T04:59:17;99602.44;;;9.56;74.77
27805;BME280;15183;51.350;11.102;2023-12-20T05:01:44;99624.31;;;9.64;74.46
27805;BME280;15183;51.350;11.102;2023-12-20T05:04:10;99628.28;;;9.73;74.96
27805;BME280;15183;51.350;11.102;2023-12-20T05:06:37;99612.81;;;9.58;74.52
27805;BME280;15183;51.350;11.102;2023-12-20T05:09:03;99618.88;;;9.59;74.74
27805;BME280;15183;51.350;11.102;2023-12-20T05:11:30;99634.22;;;9.68;74.60
27805;BME280;15183;51.350;11.102;2023-12-20T05:13:57;99627.53;;;9.66;74.64
27805;BME280;15183;51.350;11.102;2023-12-20T05:16:23;99610.31;;;9.45;73.77
27805;BME280;15183;51.350;11.102;2023-12-20T05:18:49;99640.28;;;9.57;73.98
27805;BME280;15183;51.350;11.102;2023-12-20T05:21:18;99649.13;;;9.51;74.11
27805;BME280;15183;51.350;11.102;2023-12-20T05:23:45;99645.19;;;9.53;74.14
27805;BME280;15183;51.350;11.102;2023-12-20T05:26:12;99635.59;;;9.40;74.03
27805;BME280;15183;51.350;11.102;2023-12-20T05:28:39;99633.25;;;9.51;73.92
27805;BME280;15183;51.350;11.102;2023-12-20T05:31:05;99645.78;;;9.55;73.77
27805;BME280;15183;51.350;11.102;2023-12-20T05:33:33;99635.06;;;9.50;73.75
27805;BME280;15183;51.350;11.102;2023-12-20T05:36:03;99655.78;;;9.53;73.82
27805;BME280;15183;51.350;11.102;2023-12-20T05:38:30;99657.06;;;9.51;73.89
27805;BME280;15183;51.350;11.102;2023-12-20T05:40:56;99665.25;;;9.61;73.81
27805;BME280;15183;51.350;11.102;2023-12-20T05:43:23;99648.88;;;9.52;73.49
27805;BME280;15183;51.350;11.102;2023-12-20T05:45:49;99660.75;;;9.62;73.26
27805;BME280;15183;51.350;11.102;2023-12-20T05:48:16;99661.78;;;9.61;73.69
27805;BME280;15183;51.350;11.102;2023-12-20T05:50:42;99646.81;;;9.54;73.00
27805;BME280;15183;51.350;11.102;2023-12-20T05:53:09;99661.72;;;9.67;73.28
27805;BME280;15183;51.350;11.102;2023-12-20T05:55:35;99667.00;;;9.67;73.46
27805;BME280;15183;51.350;11.102;2023-12-20T05:58:02;99589.84;;;9.09;73.07
27805;BME280;15183;51.350;11.102;2023-12-20T06:00:29;99646.59;;;9.56;73.18
27805;BME280;15183;51.350;11.102;2023-12-20T06:02:56;99586.31;;;9.16;72.67
27805;BME280;15183;51.350;11.102;2023-12-20T06:05:23;99662.28;;;9.69;73.19
27805;BME280;15183;51.350;11.102;2023-12-20T06:07:49;99663.56;;;9.67;72.93
27805;BME280;15183;51.350;11.102;2023-12-20T06:10:17;99654.53;;;9.56;72.57
27805;BME280;15183;51.350;11.102;2023-12-20T06:12:43;99657.06;;;9.51;72.57
27805;BME280;15183;51.350;11.102;2023-12-20T06:15:56;99648.38;;;9.44;72.63
27805;BME280;15183;51.350;11.102;2023-12-20T06:18:23;99614.03;;;9.06;72.47
27805;BME280;15183;51.350;11.102;2023-12-20T06:20:51;99629.75;;;9.20;72.56
27805;BME280;15183;51.350;11.102;2023-12-20T06:23:17;99652.78;;;9.31;72.56
27805;BME280;15183;51.350;11.102;2023-12-20T06:25:44;99639.75;;;9.18;72.89
27805;BME280;15183;51.350;11.102;2023-12-20T06:28:11;99647.22;;;9.21;72.61
27805;BME280;15183;51.350;11.102;2023-12-20T06:30:40;99647.97;;;9.09;72.52
27805;BME280;15183;51.350;11.102;2023-12-20T06:33:07;99644.50;;;9.09;72.27
27805;BME280;15183;51.350;11.102;2023-12-20T06:35:33;99637.53;;;8.96;72.24
27805;BME280;15183;51.350;11.102;2023-12-20T06:38:00;99640.16;;;8.96;72.08
27805;BME280;15183;51.350;11.102;2023-12-20T06:40:27;99639.00;;;8.92;71.84
27805;BME280;15183;51.350;11.102;2023-12-20T06:42:54;99667.78;;;9.00;71.68
27805;BME280;15183;51.350;11.102;2023-12-20T06:45:20;99640.84;;;8.91;71.68
27805;BME280;15183;51.350;11.102;2023-12-20T06:47:47;99634.00;;;8.83;71.93
27805;BME280;15183;51.350;11.102;2023-12-20T06:50:14;99634.22;;;8.82;72.07
27805;BME280;15183;51.350;11.102;2023-12-20T06:52:40;99658.47;;;8.97;72.08
27805;BME280;15183;51.350;11.102;2023-12-20T06:55:07;99555.00;;;8.38;71.88
27805;BME280;15183;51.350;11.102;2023-12-20T06:57:34;99650.31;;;8.99;72.19
27805;BME280;15183;51.350;11.102;2023-12-20T07:00:03;99629.47;;;8.91;72.23
27805;BME280;15183;51.350;11.102;2023-12-20T07:02:30;99651.84;;;9.07;71.85
27805;BME280;15183;51.350;11.102;2023-12-20T07:04:58;99631.50;;;8.89;72.17
27805;BME280;15183;51.350;11.102;2023-12-20T07:07:24;99660.16;;;9.10;71.81
27805;BME280;15183;51.350;11.102;2023-12-20T07:09:51;99643.69;;;9.08;72.12
27805;BME280;15183;51.350;11.102;2023-12-20T07:12:17;99648.47;;;9.18;72.08
27805;BME280;15183;51.350;11.102;2023-12-20T07:14:46;99631.50;;;9.07;71.83
27805;BME280;15183;51.350;11.102;2023-12-20T07:17:13;99658.72;;;9.26;71.98
27805;BME280;15183;51.350;11.102;2023-12-20T07:19:42;99638.56;;;9.14;71.84
27805;BME280;15183;51.350;11.102;2023-12-20T07:22:09;99594.09;;;8.92;71.74
27805;BME280;15183;51.350;11.102;2023-12-20T07:24:36;99661.09;;;9.35;71.96
27805;BME280;15183;51.350;11.102;2023-12-20T07:27:02;99649.13;;;9.32;71.68
27805;BME280;15183;51.350;11.102;2023-12-20T07:29:29;99654.94;;;9.41;71.71
27805;BME280;15183;51.350;11.102;2023-12-20T07:31:55;99647.44;;;9.38;71.50
27805;BME280;15183;51.350;11.102;2023-12-20T07:34:22;99632.47;;;9.32;71.75
27805;BME280;15183;51.350;11.102;2023-12-20T07:36:48;99646.03;;;9.35;71.96
27805;BME280;15183;51.350;11.102;2023-12-20T07:39:15;99618.50;;;9.24;71.64
27805;BME280;15183;51.350;11.102;2023-12-20T07:41:41;99641.19;;;9.51;71.56
27805;BME280;15183;51.350;11.102;2023-12-20T07:44:08;99628.69;;;9.39;71.44
27805;BME280;15183;51.350;11.102;2023-12-20T07:46:35;99660.63;;;9.56;71.08
27805;BME280;15183;51.350;11.102;2023-12-20T07:49:01;99650.22;;;9.43;71.33
27805;BME280;15183;51.350;11.102;2023-12-20T07:51:28;99580.28;;;8.90;70.86
27805;BME280;15183;51.350;11.102;2023-12-20T07:53:54;99644.94;;;9.43;71.33
27805;BME280;15183;51.350;11.102;2023-12-20T07:56:21;99647.56;;;9.43;71.23
27805;BME280;15183;51.350;11.102;2023-12-20T07:58:47;99637.97;;;9.30;71.49
27805;BME280;15183;51.350;11.102;2023-12-20T08:01:16;99649.38;;;9.31;71.17
27805;BME280;15183;51.350;11.102;2023-12-20T08:03:43;99677.44;;;9.44;71.22
27805;BME280;15183;51.350;11.102;2023-12-20T08:06:10;99675.06;;;9.42;70.91
27805;BME280;15183;51.350;11.102;2023-12-20T08:08:36;99677.44;;;9.44;70.99
27805;BME280;15183;51.350;11.102;2023-12-20T08:11:03;99646.03;;;9.35;71.55
27805;BME280;15183;51.350;11.102;2023-12-20T08:13:29;99681.34;;;9.60;71.23
27805;BME280;15183;51.350;11.102;2023-12-20T08:15:55;99632.75;;;9.42;71.29
27805;BME280;15183;51.350;11.102;2023-12-20T08:18:22;99655.13;;;9.58;71.21
27805;BME280;15183;51.350;11.102;2023-12-20T08:20:49;99665.91;;;9.56;71.01
27805;BME280;15183;51.350;11.102;2023-12-20T08:23:15;99681.97;;;9.74;71.22
27805;BME280;15183;51.350;11.102;2023-12-20T08:25:42;99694.53;;;9.78;70.58
27805;BME280;15183;51.350;11.102;2023-12-20T08:28:09;99684.72;;;9.67;70.39
27805;BME280;15183;51.350;11.102;2023-12-20T08:30:35;99695.88;;;9.69;70.82
27805;BME280;15183;51.350;11.102;2023-12-20T08:33:01;99687.97;;;9.69;70.89
27805;BME280;15183;51.350;11.102;2023-12-20T08:35:29;99680.88;;;9.63;70.88
27805;BME280;15183;51.350;11.102;2023-12-20T08:37:56;99650.03;;;9.56;71.14
27805;BME280;15183;51.350;11.102;2023-12-20T08:40:22;99675.66;;;9.75;70.87
27805;BME280;15183;51.350;11.102;2023-12-20T08:43:16;99659.28;;;9.66;71.36
27805;BME280;15183;51.350;11.102;2023-12-20T08:45:42;99683.06;;;9.84;71.44
27805;BME280;15183;51.350;11.102;2023-12-20T08:48:10;99697.50;;;10.01;71.43
27805;BME280;15183;51.350;11.102;2023-12-20T08:50:37;99686.00;;;10.07;71.32
27805;BME280;15183;51.350;11.102;2023-12-20T08:53:06;99686.50;;;10.16;71.13
27805;BME280;15183;51.350;11.102;2023-12-20T08:55:33;99667.84;;;10.10;71.00
27805;BME280;15183;51.350;11.102;2023-12-20T08:57:59;99679.13;;;10.18;71.26
27805;BME280;15183;51.350;11.102;2023-12-20T09:00:26;99663.94;;;10.13;70.44
27805;BME280;15183;51.350;11.102;2023-12-20T09:02:54;99683.31;;;10.37;70.85
27805;BME280;15183;51.350;11.102;2023-12-20T09:05:21;99687.50;;;10.45;71.04
27805;BME280;15183;51.350;11.102;2023-12-20T09:07:47;99680.38;;;10.46;70.53
27805;BME280;15183;51.350;11.102;2023-12-20T09:10:14;99673.91;;;10.53;70.69
27805;BME280;15183;51.350;11.102;2023-12-20T09:12:40;99672.66;;;10.56;70.66
27805;BME280;15183;51.350;11.102;2023-12-20T09:15:10;99691.34;;;10.73;70.71
27805;BME280;15183;51.350;11.102;2023-12-20T09:17:36;99674.03;;;10.70;70.61
27805;BME280;15183;51.350;11.102;2023-12-20T09:20:03;99614.69;;;10.36;70.50
27805;BME280;15183;51.350;11.102;2023-12-20T09:22:32;99671.41;;;10.70;70.25
27805;BME280;15183;51.350;11.102;2023-12-20T09:24:58;99668.75;;;10.82;70.39
27805;BME280;15183;51.350;11.102;2023-12-20T09:27:25;99667.97;;;10.70;69.99
27805;BME280;15183;51.350;11.102;2023-12-20T09:29:51;99661.72;;;10.76;70.45
27805;BME280;15183;51.350;11.102;2023-12-20T09:32:17;99696.03;;;10.95;69.84
27805;BME280;15183;51.350;11.102;2023-12-20T09:34:44;99650.44;;;10.69;69.58
27805;BME280;15183;51.350;11.102;2023-12-20T09:37:10;99638.56;;;10.60;69.48
27805;BME280;15183;51.350;11.102;2023-12-20T09:39:37;99613.22;;;10.40;69.66
27805;BME280;15183;51.350;11.102;2023-12-20T09:42:05;99614.50;;;10.49;69.31
27805;BME280;15183;51.350;11.102;2023-12-20T09:44:34;99621.41;;;10.50;69.18
27805;BME280;15183;51.350;11.102;2023-12-20T09:47:05;99598.44;;;10.32;69.16
27805;BME280;15183;51.350;11.102;2023-12-20T09:49:32;99608.25;;;10.32;69.29
27805;BME280;15183;51.350;11.102;2023-12-20T09:52:00;99640.75;;;10.51;69.13
27805;BME280;15183;51.350;11.102;2023-12-20T09:54:28;99597.19;;;10.23;68.95
27805;BME280;15183;51.350;11.102;2023-12-20T09:56:56;99600.41;;;10.37;69.23
27805;BME280;15183;51.350;11.102;2023-12-20T09:59:23;99582.00;;;10.30;69.01
27805;BME280;15183;51.350;11.102;2023-12-20T10:01:51;99589.47;;;10.33;69.17
27805;BME280;15183;51.350;11.102;2023-12-20T10:04:21;99620.81;;;10.48;69.53
27805;BME280;15183;51.350;11.102;2023-12-20T10:06:47;99645.94;;;10.69;69.30
27805;BME280;15183;51.350;11.102;2023-12-20T10:09:14;99571.19;;;10.32;nan
27805;BME280;15183;51.350;11.102;2023-12-20T10:11:40;99563.56;;;10.35;69.16
27805;BME280;15183;51.350;11.102;2023-12-20T10:14:07;99559.56;;;10.33;69.45
27805;BME280;15183;51.350;11.102;2023-12-20T10:16:34;99582.59;;;10.56;69.00
27805;BME280;15183;51.350;11.102;2023-12-20T10:19:01;99560.22;;;10.28;68.79
27805;BME280;15183;51.350;11.102;2023-12-20T10:21:27;99596.88;;;10.55;69.10
27805;BME280;15183;51.350;11.102;2023-12-20T10:24:00;99570.63;;;10.41;68.99
27805;BME280;15183;51.350;11.102;2023-12-20T10:26:27;99516.72;;;10.12;69.29
27805;BME280;15183;51.350;11.102;2023-12-20T10:28:56;99587.06;;;10.67;69.41
27805;BME280;15183;51.350;11.102;2023-12-20T10:31:30;99588.69;;;10.80;69.23
27805;BME280;15183;51.350;11.102;2023-12-20T10:33:58;99551.50;;;10.63;69.51
27805;BME280;15183;51.350;11.102;2023-12-20T10:36:26;99557.56;;;10.76;68.58
27805;BME280;15183;51.350;11.102;2023-12-20T10:38:54;99534.56;;;10.64;68.90
27805;BME280;15183;51.350;11.102;2023-12-20T10:41:32;99563.56;;;10.83;69.40
27805;BME280;15183;51.350;11.102;2023-12-20T10:44:03;99609.91;;;11.21;68.92
27805;BME280;15183;51.350;11.102;2023-12-20T10:46:31;99561.91;;;10.94;68.86
27805;BME280;15183;51.350;11.102;2023-12-20T10:49:02;99535.91;;;10.79;68.39
27805;BME280;15183;51.350;11.102;2023-12-20T10:51:28;99567.19;;;11.06;68.97
27805;BME280;15183;51.350;11.102;2023-12-20T10:53:58;99531.50;;;10.84;68.91
27805;BME280;15183;51.350;11.102;2023-12-20T10:56:25;99565.56;;;11.05;69.10
27805;BME280;15183;51.350;11.102;2023-12-20T10:58:56;99552.09;;;11.06;68.70
27805;BME280;15183;51.350;11.102;2023-12-20T11:01:24;99599.38;;;11.38;68.72
27805;BME280;15183;51.350;11.102;2023-12-20T11:03:52;99569.44;;;11.14;68.89
27805;BME280;15183;51.350;11.102;2023-12-20T11:06:40;99575.75;;;11.25;68.32
27805;BME280;15183;51.350;11.102;2023-12-20T11:09:24;99618.22;;;11.54;68.58
27805;BME280;15183;51.350;11.102;2023-12-20T11:12:15;99530.53;;;11.03;68.63
27805;BME280;15183;51.350;11.102;2023-12-20T11:14:53;99534.19;;;11.13;68.74
27805;BME280;15183;51.350;11.102;2023-12-20T11:17:23;99549.50;;;11.23;68.66
27805;BME280;15183;51.350;11.102;2023-12-20T11:22:31;99534.38;;;11.24;68.53
27805;BME280;15183;51.350;11.102;2023-12-20T11:25:08;99537.13;;;11.29;68.19
27805;BME280;15183;51.350;11.102;2023-12-20T11:27:36;99542.41;;;11.29;68.58
27805;BME280;15183;51.350;11.102;2023-12-20T11:30:05;99524.75;;;11.35;68.22
27805;BME280;15183;51.350;11.102;2023-12-20T11:32:36;99540.94;;;11.50;68.13
27805;BME280;15183;51.350;11.102;2023-12-20T11:35:21;99528.00;;;11.54;68.26
27805;BME280;15183;51.350;11.102;2023-12-20T11:37:51;99527.91;;;11.49;68.24
27805;BME280;15183;51.350;11.102;2023-12-20T11:40:18;99503.41;;;11.41;67.80
27805;BME280;15183;51.350;11.102;2023-12-20T11:42:49;99512.97;;;11.42;67.56
27805;BME280;15183;51.350;11.102;2023-12-20T11:45:22;99527.19;;;11.53;66.66
27805;BME280;15183;51.350;11.102;2023-12-20T11:47:51;99490.69;;;11.26;67.30
27805;BME280;15183;51.350;11.102;2023-12-20T11:50:23;99513.66;;;11.38;67.63
27805;BME280;15183;51.350;11.102;2023-12-20T11:52:58;99460.34;;;11.05;67.57
27805;BME280;15183;51.350;11.102;2023-12-20T11:55:24;99484.56;;;11.26;67.78
27805;BME280;15183;51.350;11.102;2023-12-20T11:57:51;99507.56;;;11.37;67.98
27805;BME280;15183;51.350;11.102;2023-12-20T12:00:18;99460.59;;;11.21;67.78
27805;BME280;15183;51.350;11.102;2023-12-20T12:02:56;99507.00;;;11.52;67.73
27805;BME280;15183;51.350;11.102;2023-12-20T12:05:23;99471.78;;;11.23;67.88
27805;BME280;15183;51.350;11.102;2023-12-20T12:07:49;99472.03;;;11.21;67.58
27805;BME280;15183;51.350;11.102;2023-12-20T12:10:16;99391.31;;;10.83;67.25
27805;BME280;15183;51.350;11.102;2023-12-20T12:12:42;99444.94;;;11.19;67.41
27805;BME280;15183;51.350;11.102;2023-12-20T12:15:10;99466.59;;;11.16;67.47
27805;BME280;15183;51.350;11.102;2023-12-20T12:17:37;99457.72;;;11.22;67.36
27805;BME280;15183;51.350;11.102;2023-12-20T12:20:05;99443.56;;;11.17;67.35
27805;BME280;15183;51.350;11.102;2023-12-20T12:22:32;99437.44;;;11.16;67.38
27805;BME280;15183;51.350;11.102;2023-12-20T12:25:10;99462.94;;;11.34;67.66
27805;BME280;15183;51.350;11.102;2023-12-20T12:27:39;99449.50;;;11.24;67.51
27805;BME280;15183;51.350;11.102;2023-12-20T12:30:06;99390.84;;;11.03;67.67
27805;BME280;15183;51.350;11.102;2023-12-20T12:36:02;99452.91;;;11.53;67.43
27805;BME280;15183;51.350;11.102;2023-12-20T12:38:31;99454.69;;;11.65;66.98
27805;BME280;15183;51.350;11.102;2023-12-20T12:40:58;99441.09;;;11.61;67.05
27805;BME280;15183;51.350;11.102;2023-12-20T12:43:24;99435.84;;;11.49;67.02
27805;BME280;15183;51.350;11.102;2023-12-20T12:45:51;99424.69;;;11.47;67.19
27805;BME280;15183;51.350;11.102;2023-12-20T12:48:17;99429.28;;;11.52;67.15
27805;BME280;15183;51.350;11.102;2023-12-20T12:50:46;99426.06;;;11.50;67.21
27805;BME280;15183;51.350;11.102;2023-12-20T12:53:12;99447.78;;;11.64;66.97
27805;BME280;15183;51.350;11.102;2023-12-20T12:55:39;99390.47;;;11.28;66.73
27805;BME280;15183;51.350;11.102;2023-12-20T12:58:06;99386.75;;;11.29;66.74
27805;BME280;15183;51.350;11.102;2023-12-20T13:00:33;99430.88;;;11.53;67.08
27805;BME280;15183;51.350;11.102;2023-12-20T13:03:00;99360.25;;;11.12;66.86
27805;BME280;15183;51.350;11.102;2023-12-20T13:05:26;99385.88;;;11.41;66.69
27805;BME280;15183;51.350;11.102;2023-12-20T13:07:55;99373.44;;;11.24;66.76
27805;BME280;15183;51.350;11.102;2023-12-20T13:10:22;99384.19;;;11.18;66.98